sensor_id;sensor_type;location;lat;lon;timestamp;P1;durP1;ratioP1;P2;durP2;ratioP2
1436;SDS011;712;51.026;13.792;2022-12-18T00:00:39;46.90;;;15.73;;
1436;SDS011;712;51.026;13.792;2022-12-18T00:03:05;42.45;;;15.57;;
1436;SDS011;712;51.026;13.792;2022-12-18T00:05:30;42.60;;;14.05;;
1436;SDS011;712;51.026;13.792;2022-12-18T00:07:55;43.95;;;15.63;;
1436;SDS011;712;51.026;13.792;2022-12-18T00:10:20;43.20;;;14.47;;
1436;SDS011;712;51.026;13.792;2022-12-18T00:12:45;38.03;;;12.47;;
1436;SDS011;712;51.026;13.792;2022-12-18T00:15:10;44.60;;;14.88;;
1436;SDS011;712;51.026;13.792;2022-12-18T00:17:35;40.83;;;14.47;;
1436;SDS011;712;51.026;13.792;2022-12-18T00:20:01;39.75;;;13.63;;
1436;SDS011;712;51.026;13.792;2022-12-18T00:22:26;36.28;;;13.60;;
1436;SDS011;712;51.026;13.792;2022-12-18T00:24:51;33.90;;;12.40;;
1436;SDS011;712;51.026;13.792;2022-12-18T00:27:16;39.57;;;12.87;;
1436;SDS011;712;51.026;13.792;2022-12-18T00:29:42;38.73;;;12.10;;
1436;SDS011;712;51.026;13.792;2022-12-18T00:32:07;32.35;;;12.27;;
1436;SDS011;712;51.026;13.792;2022-12-18T00:34:32;40.27;;;12.70;;
1436;SDS011;712;51.026;13.792;2022-12-18T00:36:57;32.43;;;11.70;;
1436;SDS011;712;51.026;13.792;2022-12-18T00:39:22;34.20;;;11.90;;
1436;SDS011;712;51.026;13.792;2022-12-18T00:41:47;33.80;;;11.40;;
1436;SDS011;712;51.026;13.792;2022-12-18T00:44:31;36.42;;;12.20;;
1436;SDS011;712;51.026;13.792;2022-12-18T00:46:56;36.83;;;12.23;;
1436;SDS011;712;51.026;13.792;2022-12-18T00:49:21;34.50;;;12.27;;
1436;SDS011;712;51.026;13.792;2022-12-18T00:51:47;33.87;;;12.13;;
1436;SDS011;712;51.026;13.792;2022-12-18T00:54:13;36.38;;;12.52;;
1436;SDS011;712;51.026;13.792;2022-12-18T00:56:38;35.63;;;12.10;;
1436;SDS011;712;51.026;13.792;2022-12-18T00:59:04;36.13;;;11.63;;
1436;SDS011;712;51.026;13.792;2022-12-18T01:01:29;37.50;;;12.30;;
1436;SDS011;712;51.026;13.792;2022-12-18T01:03:54;37.77;;;10.97;;
1436;SDS011;712;51.026;13.792;2022-12-18T01:06:19;30.80;;;10.05;;
1436;SDS011;712;51.026;13.792;2022-12-18T01:08:44;29.30;;;10.30;;
1436;SDS011;712;51.026;13.792;2022-12-18T01:11:11;30.60;;;10.93;;
1436;SDS011;712;51.026;13.792;2022-12-18T01:13:36;29.23;;;10.18;;
1436;SDS011;712;51.026;13.792;2022-12-18T01:16:02;32.67;;;10.40;;
1436;SDS011;712;51.026;13.792;2022-12-18T01:18:27;31.17;;;10.83;;
1436;SDS011;712;51.026;13.792;2022-12-18T01:20:52;31.67;;;10.17;;
1436;SDS011;712;51.026;13.792;2022-12-18T01:23:18;28.47;;;10.23;;
1436;SDS011;712;51.026;13.792;2022-12-18T01:25:43;29.23;;;9.20;;
1436;SDS011;712;51.026;13.792;2022-12-18T01:28:08;27.33;;;9.80;;
1436;SDS011;712;51.026;13.792;2022-12-18T01:30:33;26.73;;;8.50;;
1436;SDS011;712;51.026;13.792;2022-12-18T01:32:58;28.53;;;10.00;;
1436;SDS011;712;51.026;13.792;2022-12-18T01:35:23;27.83;;;9.13;;
1436;SDS011;712;51.026;13.792;2022-12-18T01:37:48;24.20;;;8.73;;
1436;SDS011;712;51.026;13.792;2022-12-18T01:40:14;23.77;;;8.70;;
1436;SDS011;712;51.026;13.792;2022-12-18T01:42:39;24.93;;;8.40;;
1436;SDS011;712;51.026;13.792;2022-12-18T01:49:58;24.58;;;8.90;;
1436;SDS011;712;51.026;13.792;2022-12-18T01:52:24;27.15;;;8.85;;
1436;SDS011;712;51.026;13.792;2022-12-18T01:54:51;29.23;;;8.95;;
1436;SDS011;712;51.026;13.792;2022-12-18T01:57:17;26.45;;;8.95;;
1436;SDS011;712;51.026;13.792;2022-12-18T01:59:42;28.33;;;9.57;;
1436;SDS011;712;51.026;13.792;2022-12-18T02:02:09;27.23;;;9.05;;
1436;SDS011;712;51.026;13.792;2022-12-18T02:04:34;27.87;;;8.93;;
1436;SDS011;712;51.026;13.792;2022-12-18T02:09:27;26.13;;;9.80;;
1436;SDS011;712;51.026;13.792;2022-12-18T02:17:03;27.27;;;8.98;;
1436;SDS011;712;51.026;13.792;2022-12-18T02:22:06;26.00;;;8.85;;
1436;SDS011;712;51.026;13.792;2022-12-18T02:24:45;28.85;;;9.77;;
1436;SDS011;712;51.026;13.792;2022-12-18T02:27:13;27.23;;;9.43;;
1436;SDS011;712;51.026;13.792;2022-12-18T02:29:52;24.10;;;9.13;;
1436;SDS011;712;51.026;13.792;2022-12-18T02:32:20;22.52;;;7.97;;
1436;SDS011;712;51.026;13.792;2022-12-18T02:34:47;22.30;;;7.60;;
1436;SDS011;712;51.026;13.792;2022-12-18T02:37:15;20.30;;;7.07;;
1436;SDS011;712;51.026;13.792;2022-12-18T02:39:41;22.90;;;7.97;;
1436;SDS011;712;51.026;13.792;2022-12-18T02:42:07;23.40;;;7.45;;
1436;SDS011;712;51.026;13.792;2022-12-18T02:44:46;22.67;;;6.93;;
1436;SDS011;712;51.026;13.792;2022-12-18T02:47:12;20.13;;;6.38;;
1436;SDS011;712;51.026;13.792;2022-12-18T02:57:05;19.42;;;7.25;;
1436;SDS011;712;51.026;13.792;2022-12-18T02:59:35;23.17;;;7.53;;
1436;SDS011;712;51.026;13.792;2022-12-18T03:02:15;21.13;;;6.68;;
1436;SDS011;712;51.026;13.792;2022-12-18T03:04:43;23.35;;;7.35;;
1436;SDS011;712;51.026;13.792;2022-12-18T03:07:15;20.40;;;7.30;;
1436;SDS011;712;51.026;13.792;2022-12-18T03:09:42;21.17;;;6.72;;
1436;SDS011;712;51.026;13.792;2022-12-18T03:14:55;19.05;;;6.75;;
1436;SDS011;712;51.026;13.792;2022-12-18T03:17:23;23.33;;;7.32;;
1436;SDS011;712;51.026;13.792;2022-12-18T03:19:50;19.80;;;6.03;;
1436;SDS011;712;51.026;13.792;2022-12-18T03:22:16;20.00;;;6.28;;
1436;SDS011;712;51.026;13.792;2022-12-18T03:24:41;19.83;;;7.10;;
1436;SDS011;712;51.026;13.792;2022-12-18T03:27:09;16.47;;;6.10;;
1436;SDS011;712;51.026;13.792;2022-12-18T03:29:40;18.85;;;6.38;;
1436;SDS011;712;51.026;13.792;2022-12-18T03:32:09;19.98;;;6.65;;
1436;SDS011;712;51.026;13.792;2022-12-18T03:34:35;21.27;;;7.05;;
1436;SDS011;712;51.026;13.792;2022-12-18T03:37:02;18.05;;;6.25;;
1436;SDS011;712;51.026;13.792;2022-12-18T03:39:28;21.70;;;7.35;;
1436;SDS011;712;51.026;13.792;2022-12-18T03:44:41;20.33;;;7.10;;
1436;SDS011;712;51.026;13.792;2022-12-18T03:49:36;18.13;;;5.45;;
1436;SDS011;712;51.026;13.792;2022-12-18T03:52:25;17.25;;;5.25;;
1436;SDS011;712;51.026;13.792;2022-12-18T03:54:49;15.18;;;5.45;;
1436;SDS011;712;51.026;13.792;2022-12-18T03:57:16;16.98;;;5.95;;
1436;SDS011;712;51.026;13.792;2022-12-18T04:02:07;15.50;;;5.37;;
1436;SDS011;712;51.026;13.792;2022-12-18T04:04:33;16.00;;;5.53;;
1436;SDS011;712;51.026;13.792;2022-12-18T04:06:59;15.85;;;6.00;;
1436;SDS011;712;51.026;13.792;2022-12-18T04:09:25;19.73;;;5.78;;
1436;SDS011;712;51.026;13.792;2022-12-18T04:11:51;16.65;;;5.30;;
1436;SDS011;712;51.026;13.792;2022-12-18T04:14:16;15.70;;;5.43;;
1436;SDS011;712;51.026;13.792;2022-12-18T04:16:41;17.63;;;5.47;;
1436;SDS011;712;51.026;13.792;2022-12-18T04:19:06;15.93;;;5.47;;
1436;SDS011;712;51.026;13.792;2022-12-18T04:21:32;17.27;;;5.83;;
1436;SDS011;712;51.026;13.792;2022-12-18T04:23:57;16.07;;;5.60;;
1436;SDS011;712;51.026;13.792;2022-12-18T04:26:22;15.23;;;5.60;;
1436;SDS011;712;51.026;13.792;2022-12-18T04:28:47;16.83;;;5.20;;
1436;SDS011;712;51.026;13.792;2022-12-18T04:31:12;14.57;;;4.93;;
1436;SDS011;712;51.026;13.792;2022-12-18T04:33:37;13.03;;;4.80;;
1436;SDS011;712;51.026;13.792;2022-12-18T04:36:03;13.43;;;4.50;;
1436;SDS011;712;51.026;13.792;2022-12-18T04:38:28;13.07;;;4.77;;
1436;SDS011;712;51.026;13.792;2022-12-18T04:40:53;16.00;;;5.63;;
1436;SDS011;712;51.026;13.792;2022-12-18T04:43:18;18.83;;;5.87;;
1436;SDS011;712;51.026;13.792;2022-12-18T04:45:43;13.87;;;4.33;;
1436;SDS011;712;51.026;13.792;2022-12-18T04:48:09;15.33;;;4.77;;
1436;SDS011;712;51.026;13.792;2022-12-18T04:50:34;15.13;;;4.63;;
1436;SDS011;712;51.026;13.792;2022-12-18T04:52:59;15.77;;;5.07;;
1436;SDS011;712;51.026;13.792;2022-12-18T04:55:24;13.53;;;4.87;;
1436;SDS011;712;51.026;13.792;2022-12-18T04:57:49;13.17;;;4.23;;
1436;SDS011;712;51.026;13.792;2022-12-18T05:00:14;13.80;;;4.30;;
1436;SDS011;712;51.026;13.792;2022-12-18T05:02:40;15.27;;;4.90;;
1436;SDS011;712;51.026;13.792;2022-12-18T05:05:05;14.27;;;5.20;;
1436;SDS011;712;51.026;13.792;2022-12-18T05:07:30;15.90;;;4.80;;
1436;SDS011;712;51.026;13.792;2022-12-18T05:09:55;13.93;;;4.60;;
1436;SDS011;712;51.026;13.792;2022-12-18T05:12:21;13.50;;;4.70;;
1436;SDS011;712;51.026;13.792;2022-12-18T05:14:46;13.43;;;5.07;;
1436;SDS011;712;51.026;13.792;2022-12-18T05:17:11;14.77;;;4.97;;
1436;SDS011;712;51.026;13.792;2022-12-18T05:19:36;15.37;;;4.93;;
1436;SDS011;712;51.026;13.792;2022-12-18T05:22:01;16.00;;;5.23;;
1436;SDS011;712;51.026;13.792;2022-12-18T05:24:26;14.93;;;4.67;;
1436;SDS011;712;51.026;13.792;2022-12-18T05:26:52;17.35;;;4.75;;
1436;SDS011;712;51.026;13.792;2022-12-18T05:29:17;14.13;;;4.60;;
1436;SDS011;712;51.026;13.792;2022-12-18T05:31:42;17.57;;;5.03;;
1436;SDS011;712;51.026;13.792;2022-12-18T05:34:07;18.00;;;4.90;;
1436;SDS011;712;51.026;13.792;2022-12-18T05:36:32;14.00;;;4.97;;
1436;SDS011;712;51.026;13.792;2022-12-18T05:38:58;13.63;;;4.93;;
1436;SDS011;712;51.026;13.792;2022-12-18T05:41:23;14.03;;;5.00;;
1436;SDS011;712;51.026;13.792;2022-12-18T05:43:48;14.30;;;4.55;;
1436;SDS011;712;51.026;13.792;2022-12-18T05:46:14;15.13;;;5.17;;
1436;SDS011;712;51.026;13.792;2022-12-18T05:48:40;17.23;;;4.90;;
1436;SDS011;712;51.026;13.792;2022-12-18T05:51:06;13.40;;;5.00;;
1436;SDS011;712;51.026;13.792;2022-12-18T05:53:32;15.20;;;4.72;;
1436;SDS011;712;51.026;13.792;2022-12-18T05:55:59;12.93;;;4.40;;
1436;SDS011;712;51.026;13.792;2022-12-18T05:58:24;15.68;;;4.90;;
1436;SDS011;712;51.026;13.792;2022-12-18T06:00:50;16.10;;;4.70;;
1436;SDS011;712;51.026;13.792;2022-12-18T06:03:15;12.50;;;4.67;;
1436;SDS011;712;51.026;13.792;2022-12-18T06:05:44;16.17;;;5.45;;
1436;SDS011;712;51.026;13.792;2022-12-18T06:08:09;15.77;;;4.80;;
1436;SDS011;712;51.026;13.792;2022-12-18T06:10:35;13.15;;;4.88;;
1436;SDS011;712;51.026;13.792;2022-12-18T06:13:00;15.43;;;5.00;;
1436;SDS011;712;51.026;13.792;2022-12-18T06:15:25;14.10;;;4.47;;
1436;SDS011;712;51.026;13.792;2022-12-18T06:17:51;14.77;;;4.63;;
1436;SDS011;712;51.026;13.792;2022-12-18T06:20:16;13.77;;;4.30;;
1436;SDS011;712;51.026;13.792;2022-12-18T06:22:41;16.60;;;5.37;;
1436;SDS011;712;51.026;13.792;2022-12-18T06:25:06;16.25;;;5.18;;
1436;SDS011;712;51.026;13.792;2022-12-18T06:27:32;14.60;;;4.55;;
1436;SDS011;712;51.026;13.792;2022-12-18T06:29:58;13.30;;;4.78;;
1436;SDS011;712;51.026;13.792;2022-12-18T06:32:23;13.23;;;4.50;;
1436;SDS011;712;51.026;13.792;2022-12-18T06:34:48;15.63;;;4.60;;
1436;SDS011;712;51.026;13.792;2022-12-18T06:37:14;15.18;;;4.50;;
1436;SDS011;712;51.026;13.792;2022-12-18T06:39:39;14.47;;;5.00;;
1436;SDS011;712;51.026;13.792;2022-12-18T06:42:04;18.43;;;5.10;;
1436;SDS011;712;51.026;13.792;2022-12-18T06:44:29;15.32;;;4.90;;
1436;SDS011;712;51.026;13.792;2022-12-18T06:46:55;16.85;;;4.88;;
1436;SDS011;712;51.026;13.792;2022-12-18T06:49:20;17.07;;;5.10;;
1436;SDS011;712;51.026;13.792;2022-12-18T06:51:45;16.47;;;5.17;;
1436;SDS011;712;51.026;13.792;2022-12-18T06:54:10;16.17;;;6.37;;
1436;SDS011;712;51.026;13.792;2022-12-18T06:56:35;19.50;;;6.13;;
1436;SDS011;712;51.026;13.792;2022-12-18T06:59:01;17.75;;;5.30;;
1436;SDS011;712;51.026;13.792;2022-12-18T07:01:26;15.33;;;4.87;;
1436;SDS011;712;51.026;13.792;2022-12-18T07:03:52;16.70;;;4.87;;
1436;SDS011;712;51.026;13.792;2022-12-18T07:06:19;14.13;;;4.97;;
1436;SDS011;712;51.026;13.792;2022-12-18T07:08:44;14.68;;;5.00;;
1436;SDS011;712;51.026;13.792;2022-12-18T07:11:10;17.45;;;5.60;;
1436;SDS011;712;51.026;13.792;2022-12-18T07:13:35;16.77;;;5.50;;
1436;SDS011;712;51.026;13.792;2022-12-18T07:16:07;15.43;;;5.23;;
1436;SDS011;712;51.026;13.792;2022-12-18T07:18:33;14.43;;;4.85;;
1436;SDS011;712;51.026;13.792;2022-12-18T07:21:01;15.00;;;5.13;;
1436;SDS011;712;51.026;13.792;2022-12-18T07:23:26;15.88;;;5.03;;
1436;SDS011;712;51.026;13.792;2022-12-18T07:25:52;13.93;;;5.15;;
1436;SDS011;712;51.026;13.792;2022-12-18T07:28:17;16.67;;;5.80;;
1436;SDS011;712;51.026;13.792;2022-12-18T07:30:42;18.05;;;5.40;;
1436;SDS011;712;51.026;13.792;2022-12-18T07:33:07;14.60;;;4.97;;
1436;SDS011;712;51.026;13.792;2022-12-18T07:35:33;13.80;;;5.17;;
1436;SDS011;712;51.026;13.792;2022-12-18T07:38:01;17.88;;;5.20;;
1436;SDS011;712;51.026;13.792;2022-12-18T07:40:26;17.33;;;5.47;;
1436;SDS011;712;51.026;13.792;2022-12-18T07:42:51;23.13;;;7.73;;
1436;SDS011;712;51.026;13.792;2022-12-18T07:45:16;25.97;;;6.90;;
1436;SDS011;712;51.026;13.792;2022-12-18T07:47:41;22.83;;;6.80;;
1436;SDS011;712;51.026;13.792;2022-12-18T07:50:07;23.50;;;7.20;;
1436;SDS011;712;51.026;13.792;2022-12-18T07:52:32;22.70;;;7.20;;
1436;SDS011;712;51.026;13.792;2022-12-18T07:54:57;18.17;;;5.53;;
1436;SDS011;712;51.026;13.792;2022-12-18T07:57:23;22.17;;;6.40;;
1436;SDS011;712;51.026;13.792;2022-12-18T07:59:48;23.23;;;6.53;;
1436;SDS011;712;51.026;13.792;2022-12-18T08:02:13;23.52;;;7.47;;
1436;SDS011;712;51.026;13.792;2022-12-18T08:04:39;24.27;;;6.85;;
1436;SDS011;712;51.026;13.792;2022-12-18T08:07:04;24.70;;;7.33;;
1436;SDS011;712;51.026;13.792;2022-12-18T08:09:29;23.87;;;7.57;;
1436;SDS011;712;51.026;13.792;2022-12-18T08:11:55;22.87;;;8.27;;
1436;SDS011;712;51.026;13.792;2022-12-18T08:14:20;24.45;;;6.63;;
1436;SDS011;712;51.026;13.792;2022-12-18T08:16:45;21.73;;;7.23;;
1436;SDS011;712;51.026;13.792;2022-12-18T08:19:10;19.60;;;7.53;;
1436;SDS011;712;51.026;13.792;2022-12-18T08:21:35;20.43;;;7.30;;
1436;SDS011;712;51.026;13.792;2022-12-18T08:24:01;24.98;;;7.80;;
1436;SDS011;712;51.026;13.792;2022-12-18T08:26:28;20.13;;;7.70;;
1436;SDS011;712;51.026;13.792;2022-12-18T08:28:57;24.10;;;7.68;;
1436;SDS011;712;51.026;13.792;2022-12-18T08:31:23;22.45;;;7.25;;
1436;SDS011;712;51.026;13.792;2022-12-18T08:33:49;26.10;;;8.52;;
1436;SDS011;712;51.026;13.792;2022-12-18T08:36:14;24.23;;;7.65;;
1436;SDS011;712;51.026;13.792;2022-12-18T08:38:39;23.80;;;8.97;;
1436;SDS011;712;51.026;13.792;2022-12-18T08:41:06;26.17;;;9.23;;
1436;SDS011;712;51.026;13.792;2022-12-18T08:43:31;23.65;;;8.43;;
1436;SDS011;712;51.026;13.792;2022-12-18T08:46:15;26.73;;;9.50;;
1436;SDS011;712;51.026;13.792;2022-12-18T08:48:41;26.08;;;9.23;;
1436;SDS011;712;51.026;13.792;2022-12-18T08:51:06;26.25;;;9.75;;
1436;SDS011;712;51.026;13.792;2022-12-18T08:53:31;27.92;;;10.07;;
1436;SDS011;712;51.026;13.792;2022-12-18T08:55:56;25.80;;;9.70;;
1436;SDS011;712;51.026;13.792;2022-12-18T08:58:21;29.30;;;9.13;;
1436;SDS011;712;51.026;13.792;2022-12-18T09:00:47;27.67;;;9.63;;
1436;SDS011;712;51.026;13.792;2022-12-18T09:03:16;26.70;;;9.23;;
1436;SDS011;712;51.026;13.792;2022-12-18T09:05:41;26.63;;;10.18;;
1436;SDS011;712;51.026;13.792;2022-12-18T09:08:07;27.23;;;9.47;;
1436;SDS011;712;51.026;13.792;2022-12-18T09:10:32;30.63;;;10.50;;
1436;SDS011;712;51.026;13.792;2022-12-18T09:12:58;33.88;;;10.63;;
1436;SDS011;712;51.026;13.792;2022-12-18T09:15:23;31.50;;;11.50;;
1436;SDS011;712;51.026;13.792;2022-12-18T09:17:48;29.38;;;10.57;;
1436;SDS011;712;51.026;13.792;2022-12-18T09:20:14;31.73;;;10.45;;
1436;SDS011;712;51.026;13.792;2022-12-18T09:22:40;36.53;;;12.10;;
1436;SDS011;712;51.026;13.792;2022-12-18T09:25:05;33.77;;;11.70;;
1436;SDS011;712;51.026;13.792;2022-12-18T09:27:32;34.47;;;11.70;;
1436;SDS011;712;51.026;13.792;2022-12-18T09:29:58;32.17;;;10.97;;
1436;SDS011;712;51.026;13.792;2022-12-18T09:32:23;34.67;;;13.02;;
1436;SDS011;712;51.026;13.792;2022-12-18T09:34:48;28.23;;;10.67;;
1436;SDS011;712;51.026;13.792;2022-12-18T09:37:14;32.72;;;11.13;;
1436;SDS011;712;51.026;13.792;2022-12-18T09:39:39;32.63;;;12.00;;
1436;SDS011;712;51.026;13.792;2022-12-18T09:42:04;34.70;;;11.17;;
1436;SDS011;712;51.026;13.792;2022-12-18T09:44:41;39.85;;;11.23;;
1436;SDS011;712;51.026;13.792;2022-12-18T09:49:42;35.83;;;11.30;;
1436;SDS011;712;51.026;13.792;2022-12-18T09:52:09;31.65;;;11.60;;
1436;SDS011;712;51.026;13.792;2022-12-18T09:54:38;33.38;;;10.60;;
1436;SDS011;712;51.026;13.792;2022-12-18T09:57:04;33.42;;;10.38;;
1436;SDS011;712;51.026;13.792;2022-12-18T09:59:30;32.10;;;11.25;;
1436;SDS011;712;51.026;13.792;2022-12-18T10:01:56;36.22;;;12.15;;
1436;SDS011;712;51.026;13.792;2022-12-18T10:04:22;32.90;;;11.70;;
1436;SDS011;712;51.026;13.792;2022-12-18T10:06:50;31.50;;;10.00;;
1436;SDS011;712;51.026;13.792;2022-12-18T10:17:30;33.53;;;10.52;;
1436;SDS011;712;51.026;13.792;2022-12-18T10:20:13;33.20;;;10.80;;
1436;SDS011;712;51.026;13.792;2022-12-18T10:22:53;30.67;;;10.25;;
1436;SDS011;712;51.026;13.792;2022-12-18T10:25:39;29.80;;;10.18;;
1436;SDS011;712;51.026;13.792;2022-12-18T10:28:11;27.15;;;10.15;;
1436;SDS011;712;51.026;13.792;2022-12-18T10:30:37;32.08;;;10.23;;
1436;SDS011;712;51.026;13.792;2022-12-18T10:33:03;35.40;;;11.35;;
1436;SDS011;712;51.026;13.792;2022-12-18T10:35:28;35.07;;;10.90;;
1436;SDS011;712;51.026;13.792;2022-12-18T10:38:04;30.30;;;9.87;;
1436;SDS011;712;51.026;13.792;2022-12-18T10:40:29;28.63;;;9.23;;
1436;SDS011;712;51.026;13.792;2022-12-18T10:43:11;29.47;;;10.10;;
1436;SDS011;712;51.026;13.792;2022-12-18T10:45:36;29.75;;;10.32;;
1436;SDS011;712;51.026;13.792;2022-12-18T10:48:02;29.17;;;10.57;;
1436;SDS011;712;51.026;13.792;2022-12-18T10:50:29;28.33;;;9.95;;
1436;SDS011;712;51.026;13.792;2022-12-18T10:52:58;33.20;;;10.68;;
1436;SDS011;712;51.026;13.792;2022-12-18T10:55:25;31.48;;;11.23;;
1436;SDS011;712;51.026;13.792;2022-12-18T10:57:52;31.00;;;10.98;;
1436;SDS011;712;51.026;13.792;2022-12-18T11:00:20;38.37;;;12.57;;
1436;SDS011;712;51.026;13.792;2022-12-18T11:02:46;39.63;;;10.73;;
1436;SDS011;712;51.026;13.792;2022-12-18T11:05:22;33.23;;;11.70;;
1436;SDS011;712;51.026;13.792;2022-12-18T11:07:48;35.33;;;11.75;;
1436;SDS011;712;51.026;13.792;2022-12-18T11:10:18;35.20;;;11.13;;
1436;SDS011;712;51.026;13.792;2022-12-18T11:12:43;39.50;;;11.15;;
1436;SDS011;712;51.026;13.792;2022-12-18T11:15:15;34.10;;;9.97;;
1436;SDS011;712;51.026;13.792;2022-12-18T11:17:41;35.38;;;12.48;;
1436;SDS011;712;51.026;13.792;2022-12-18T11:20:19;31.50;;;10.17;;
1436;SDS011;712;51.026;13.792;2022-12-18T11:22:53;27.83;;;9.13;;
1436;SDS011;712;51.026;13.792;2022-12-18T11:25:19;29.67;;;9.80;;
1436;SDS011;712;51.026;13.792;2022-12-18T11:27:51;30.53;;;10.70;;
1436;SDS011;712;51.026;13.792;2022-12-18T11:32:48;31.90;;;9.43;;
1436;SDS011;712;51.026;13.792;2022-12-18T11:35:23;28.70;;;9.32;;
1436;SDS011;712;51.026;13.792;2022-12-18T11:37:53;31.70;;;10.52;;
1436;SDS011;712;51.026;13.792;2022-12-18T11:40:25;29.10;;;10.20;;
1436;SDS011;712;51.026;13.792;2022-12-18T11:43:13;33.35;;;10.07;;
1436;SDS011;712;51.026;13.792;2022-12-18T11:45:47;29.10;;;9.63;;
1436;SDS011;712;51.026;13.792;2022-12-18T11:48:23;32.20;;;10.15;;
1436;SDS011;712;51.026;13.792;2022-12-18T11:50:51;26.88;;;9.15;;
1436;SDS011;712;51.026;13.792;2022-12-18T11:53:17;26.05;;;8.77;;
1436;SDS011;712;51.026;13.792;2022-12-18T11:58:17;27.17;;;8.82;;
1436;SDS011;712;51.026;13.792;2022-12-18T12:00:51;25.98;;;8.70;;
1436;SDS011;712;51.026;13.792;2022-12-18T12:13:52;27.65;;;8.75;;
1436;SDS011;712;51.026;13.792;2022-12-18T12:16:23;28.52;;;8.80;;
1436;SDS011;712;51.026;13.792;2022-12-18T12:26:15;29.77;;;9.60;;
1436;SDS011;712;51.026;13.792;2022-12-18T12:31:19;30.67;;;9.98;;
1436;SDS011;712;51.026;13.792;2022-12-18T12:36:27;25.45;;;8.93;;
1436;SDS011;712;51.026;13.792;2022-12-18T12:38:59;23.98;;;8.63;;
1436;SDS011;712;51.026;13.792;2022-12-18T12:41:26;31.95;;;9.77;;
1436;SDS011;712;51.026;13.792;2022-12-18T12:44:15;24.95;;;7.93;;
1436;SDS011;712;51.026;13.792;2022-12-18T12:46:41;29.55;;;9.48;;
1436;SDS011;712;51.026;13.792;2022-12-18T12:49:12;23.55;;;8.00;;
1436;SDS011;712;51.026;13.792;2022-12-18T12:51:39;29.67;;;9.75;;
1436;SDS011;712;51.026;13.792;2022-12-18T12:54:06;25.10;;;8.90;;
1436;SDS011;712;51.026;13.792;2022-12-18T13:07:20;30.55;;;10.45;;
1436;SDS011;712;51.026;13.792;2022-12-18T13:12:32;32.53;;;9.45;;
1436;SDS011;712;51.026;13.792;2022-12-18T13:15:20;33.40;;;10.52;;
1436;SDS011;712;51.026;13.792;2022-12-18T13:17:46;28.85;;;9.57;;
1436;SDS011;712;51.026;13.792;2022-12-18T13:20:12;27.07;;;9.33;;
1436;SDS011;712;51.026;13.792;2022-12-18T13:22:48;26.42;;;8.88;;
1436;SDS011;712;51.026;13.792;2022-12-18T13:28:02;28.00;;;10.20;;
1436;SDS011;712;51.026;13.792;2022-12-18T13:45:45;29.83;;;9.50;;
1436;SDS011;712;51.026;13.792;2022-12-18T13:48:14;29.95;;;9.20;;
1436;SDS011;712;51.026;13.792;2022-12-18T13:50:40;27.25;;;9.20;;
1436;SDS011;712;51.026;13.792;2022-12-18T13:53:05;30.90;;;10.13;;
1436;SDS011;712;51.026;13.792;2022-12-18T13:55:30;26.73;;;9.07;;
1436;SDS011;712;51.026;13.792;2022-12-18T13:58:03;27.50;;;9.10;;
1436;SDS011;712;51.026;13.792;2022-12-18T14:00:29;25.45;;;8.43;;
1436;SDS011;712;51.026;13.792;2022-12-18T14:02:54;23.67;;;9.00;;
1436;SDS011;712;51.026;13.792;2022-12-18T14:05:23;23.08;;;7.60;;
1436;SDS011;712;51.026;13.792;2022-12-18T14:07:49;23.38;;;8.52;;
1436;SDS011;712;51.026;13.792;2022-12-18T14:10:14;21.50;;;8.17;;
1436;SDS011;712;51.026;13.792;2022-12-18T14:12:40;24.83;;;8.20;;
1436;SDS011;712;51.026;13.792;2022-12-18T14:15:24;21.17;;;7.32;;
1436;SDS011;712;51.026;13.792;2022-12-18T14:20:17;30.92;;;8.57;;
1436;SDS011;712;51.026;13.792;2022-12-18T14:22:43;20.95;;;7.13;;
1436;SDS011;712;51.026;13.792;2022-12-18T14:27:41;21.83;;;8.00;;
1436;SDS011;712;51.026;13.792;2022-12-18T14:30:25;26.45;;;7.85;;
1436;SDS011;712;51.026;13.792;2022-12-18T14:35:28;25.75;;;8.82;;
1436;SDS011;712;51.026;13.792;2022-12-18T14:37:53;27.47;;;9.20;;
1436;SDS011;712;51.026;13.792;2022-12-18T14:40:32;25.98;;;8.48;;
1436;SDS011;712;51.026;13.792;2022-12-18T14:42:57;24.67;;;7.87;;
1436;SDS011;712;51.026;13.792;2022-12-18T14:48:06;27.92;;;9.35;;
1436;SDS011;712;51.026;13.792;2022-12-18T14:50:31;22.00;;;8.43;;
1436;SDS011;712;51.026;13.792;2022-12-18T14:52:57;23.80;;;8.20;;
1436;SDS011;712;51.026;13.792;2022-12-18T14:55:22;21.03;;;7.87;;
1436;SDS011;712;51.026;13.792;2022-12-18T14:57:50;24.13;;;8.30;;
1436;SDS011;712;51.026;13.792;2022-12-18T15:00:23;23.95;;;7.70;;
1436;SDS011;712;51.026;13.792;2022-12-18T15:02:55;27.40;;;8.50;;
1436;SDS011;712;51.026;13.792;2022-12-18T15:05:25;26.20;;;9.38;;
1436;SDS011;712;51.026;13.792;2022-12-18T15:07:51;23.60;;;8.55;;
1436;SDS011;712;51.026;13.792;2022-12-18T15:10:17;26.42;;;8.55;;
1436;SDS011;712;51.026;13.792;2022-12-18T15:12:47;26.02;;;9.13;;
1436;SDS011;712;51.026;13.792;2022-12-18T15:17:57;24.17;;;8.32;;
1436;SDS011;712;51.026;13.792;2022-12-18T15:20:22;25.90;;;8.60;;
1436;SDS011;712;51.026;13.792;2022-12-18T15:22:47;27.70;;;9.07;;
1436;SDS011;712;51.026;13.792;2022-12-18T15:25:22;24.00;;;8.13;;
1436;SDS011;712;51.026;13.792;2022-12-18T15:30:18;27.43;;;7.87;;
1436;SDS011;712;51.026;13.792;2022-12-18T15:32:43;25.38;;;7.88;;
1436;SDS011;712;51.026;13.792;2022-12-18T15:35:27;25.75;;;8.75;;
1436;SDS011;712;51.026;13.792;2022-12-18T15:37:52;26.70;;;9.38;;
1436;SDS011;712;51.026;13.792;2022-12-18T15:40:18;23.80;;;7.87;;
1436;SDS011;712;51.026;13.792;2022-12-18T15:42:44;26.38;;;8.70;;
1436;SDS011;712;51.026;13.792;2022-12-18T15:45:28;28.75;;;9.65;;
1436;SDS011;712;51.026;13.792;2022-12-18T15:47:54;29.57;;;9.50;;
1436;SDS011;712;51.026;13.792;2022-12-18T15:50:19;28.13;;;9.10;;
1436;SDS011;712;51.026;13.792;2022-12-18T15:52:45;24.80;;;8.77;;
1436;SDS011;712;51.026;13.792;2022-12-18T15:55:14;26.50;;;8.75;;
1436;SDS011;712;51.026;13.792;2022-12-18T15:57:58;28.58;;;9.23;;
1436;SDS011;712;51.026;13.792;2022-12-18T16:00:23;25.70;;;7.83;;
1436;SDS011;712;51.026;13.792;2022-12-18T16:02:48;27.33;;;8.63;;
1436;SDS011;712;51.026;13.792;2022-12-18T16:05:14;26.77;;;9.13;;
1436;SDS011;712;51.026;13.792;2022-12-18T16:07:39;26.75;;;9.30;;
1436;SDS011;712;51.026;13.792;2022-12-18T16:10:05;28.90;;;8.47;;
1436;SDS011;712;51.026;13.792;2022-12-18T16:12:30;27.38;;;9.07;;
1436;SDS011;712;51.026;13.792;2022-12-18T16:14:55;28.37;;;9.00;;
1436;SDS011;712;51.026;13.792;2022-12-18T16:17:20;27.13;;;9.27;;
1436;SDS011;712;51.026;13.792;2022-12-18T16:19:46;25.83;;;8.73;;
1436;SDS011;712;51.026;13.792;2022-12-18T16:22:15;25.33;;;7.87;;
1436;SDS011;712;51.026;13.792;2022-12-18T16:24:42;25.17;;;9.57;;
1436;SDS011;712;51.026;13.792;2022-12-18T16:27:08;28.83;;;9.13;;
1436;SDS011;712;51.026;13.792;2022-12-18T16:29:33;31.73;;;9.00;;
1436;SDS011;712;51.026;13.792;2022-12-18T16:31:59;28.67;;;9.30;;
1436;SDS011;712;51.026;13.792;2022-12-18T16:34:26;27.10;;;9.88;;
1436;SDS011;712;51.026;13.792;2022-12-18T16:36:53;28.35;;;10.35;;
1436;SDS011;712;51.026;13.792;2022-12-18T16:39:19;27.65;;;8.80;;
1436;SDS011;712;51.026;13.792;2022-12-18T16:41:44;27.33;;;9.50;;
1436;SDS011;712;51.026;13.792;2022-12-18T16:44:09;27.73;;;9.80;;
1436;SDS011;712;51.026;13.792;2022-12-18T16:46:35;28.85;;;9.73;;
1436;SDS011;712;51.026;13.792;2022-12-18T16:49:01;28.52;;;9.20;;
1436;SDS011;712;51.026;13.792;2022-12-18T16:51:26;29.47;;;9.10;;
1436;SDS011;712;51.026;13.792;2022-12-18T16:53:52;27.30;;;8.65;;
1436;SDS011;712;51.026;13.792;2022-12-18T16:56:17;28.08;;;9.02;;